• Join FlightAware (Why Join?)
  • Login
  • US Flag 
03:35PM EDT


 

Airport Tracker/Info


-or-


 

Live Flight TrackerFlight Track Log ✈ AAR272 ✈ 04-May-2012 ✈ RKSI / ICN - KSEA

Flight Track Log - Related Links

Times and Time Zones

All times are in EDT time to prevent confusion due to time zone crossing. See the AAR272 flight status page for this flight to view local times or setup timezone preferences in your user account.

Time Position Orientation Groundspeed Altitude Reporting Facility
EDT Latitude Longitude Course Direction KTS MPH feet Rate Location/Type
06:11AM 37.4625 126.4941 57° Northeast  Level FlightAware Approximate
06:12AM 37.4833 126.6683 57° Northeast  Level FlightAware Approximate
06:13AM 37.4834 126.8457 57° Northeast  Level FlightAware Approximate
06:14AM 37.4834 127.0231 57° Northeast  Level FlightAware Approximate
06:15AM 37.4833 127.2006 57° Northeast  Level FlightAware Approximate
06:16AM 37.4848 127.3779 57° Northeast  Level FlightAware Approximate
06:17AM 37.4415 127.5466 57° Northeast  Level FlightAware Approximate
06:18AM 37.5225 127.6752 57° Northeast  Level FlightAware Approximate
06:19AM 37.4742 127.8420 57° Northeast  Level FlightAware Approximate
06:20AM 37.4257 128.0085 57° Northeast  Level FlightAware Approximate
06:21AM 37.3988 128.1824 57° Northeast  Level FlightAware Approximate
06:22AM 37.3717 128.3563 57° Northeast  Level FlightAware Approximate
06:23AM 37.3442 128.5301 56° Northeast  Level FlightAware Approximate
06:24AM 37.3166 128.7037 56° Northeast  Level FlightAware Approximate
06:25AM 37.2887 128.8772 56° Northeast  Level FlightAware Approximate
06:26AM 37.2605 129.0506 56° Northeast  Level FlightAware Approximate
06:27AM 37.2320 129.2238 56° Northeast  Level FlightAware Approximate
06:28AM 37.2034 129.3969 56° Northeast  Level FlightAware Approximate
06:29AM 37.1744 129.5699 56° Northeast  Level FlightAware Approximate
06:30AM 37.1452 129.7427 56° Northeast  Level FlightAware Approximate
06:31AM 37.1158 129.9154 56° Northeast  Level FlightAware Approximate
06:32AM 37.0861 130.0880 55° Northeast  Level FlightAware Approximate
06:33AM 37.0562 130.2604 55° Northeast  Level FlightAware Approximate
06:34AM 37.0260 130.4327 55° Northeast  Level FlightAware Approximate
06:35AM 36.9956 130.6048 55° Northeast  Level FlightAware Approximate
06:36AM 36.9649 130.7769 55° Northeast  Level FlightAware Approximate
06:37AM 36.9509 130.9522 55° Northeast  Level FlightAware Approximate
06:38AM 36.9366 131.1274 55° Northeast  Level FlightAware Approximate
06:39AM 36.9343 131.3036 55° Northeast  Level FlightAware Approximate
06:40AM 36.9317 131.4797 55° Northeast  Level FlightAware Approximate
06:41AM 36.9289 131.6558 55° Northeast  Level FlightAware Approximate
06:42AM 36.9258 131.8319 55° Northeast  Level FlightAware Approximate
06:43AM 36.9224 132.0079 54° Northeast  Level FlightAware Approximate
06:44AM 36.9188 132.1840 54° Northeast  Level FlightAware Approximate
06:45AM 36.9149 132.3600 54° Northeast  Level FlightAware Approximate
06:46AM 36.9108 132.5361 54° Northeast  Level FlightAware Approximate
06:47AM 36.9064 132.7121 54° Northeast  Level FlightAware Approximate
06:48AM 36.9017 132.8880 54° Northeast  Level FlightAware Approximate
06:49AM 36.8968 133.0640 54° Northeast  Level FlightAware Approximate
06:50AM 36.8916 133.2399 54° Northeast  Level FlightAware Approximate
06:51AM 36.8862 133.4159 54° Northeast  Level FlightAware Approximate
06:52AM 36.8805 133.5918 54° Northeast  Level FlightAware Approximate
06:53AM 36.8745 133.7676 53° Northeast  Level FlightAware Approximate
06:54AM 36.8683 133.9434 53° Northeast  Level FlightAware Approximate
06:55AM 36.8692 134.1194 53° Northeast  Level FlightAware Approximate
06:56AM 36.8698 134.2954 53° Northeast  Level FlightAware Approximate
06:57AM 36.8701 134.4714 53° Northeast  Level FlightAware Approximate
06:58AM 36.8702 134.6474 53° Northeast  Level FlightAware Approximate
06:59AM 36.8701 134.8234 53° Northeast  Level FlightAware Approximate
07:00AM 36.8696 134.9994 53° Northeast  Level FlightAware Approximate
07:01AM 36.8689 135.1754 53° Northeast  Level FlightAware Approximate
07:02AM 36.8680 135.3514 53° Northeast  Level FlightAware Approximate
07:03AM 36.8668 135.5274 52° Northeast  Level FlightAware Approximate
07:04AM 36.8653 135.7034 52° Northeast  Level FlightAware Approximate
07:05AM 36.8636 135.8794 52° Northeast  Level FlightAware Approximate
07:06AM 36.8616 136.0553 52° Northeast  Level FlightAware Approximate
07:07AM 36.8672 136.2312 52° Northeast  Level FlightAware Approximate
07:08AM 36.8726 136.4070 52° Northeast  Level FlightAware Approximate
07:09AM 36.8778 136.5829 52° Northeast  Level FlightAware Approximate
07:10AM 36.8826 136.7589 52° Northeast  Level FlightAware Approximate
07:11AM 36.8873 136.9348 52° Northeast  Level FlightAware Approximate
07:12AM 36.8916 137.1108 51° Northeast  Level FlightAware Approximate
07:13AM 36.8957 137.2867 51° Northeast  Level FlightAware Approximate
07:14AM 36.8996 137.4627 51° Northeast  Level FlightAware Approximate
07:15AM 36.9031 137.6387 51° Northeast  Level FlightAware Approximate
07:16AM 36.9065 137.8148 51° Northeast  Level FlightAware Approximate
07:17AM 36.9095 137.9908 51° Northeast  Level FlightAware Approximate
07:18AM 36.9123 138.1669 51° Northeast  Level FlightAware Approximate
07:19AM 36.9149 138.3429 51° Northeast  Level FlightAware Approximate
07:20AM 36.9216 138.5188 50° Northeast  Level FlightAware Approximate
07:21AM 36.9280 138.6948 50° Northeast  Level FlightAware Approximate
07:22AM 36.9342 138.8708 50° Northeast  Level FlightAware Approximate
07:23AM 36.9401 139.0468 50° Northeast  Level FlightAware Approximate
07:24AM 36.9457 139.2228 50° Northeast  Level FlightAware Approximate
07:25AM 36.9569 139.3984 50° Northeast  Level FlightAware Approximate
07:26AM 36.9677 139.5741 50° Northeast  Level FlightAware Approximate
07:27AM 36.9784 139.7499 50° Northeast  Level FlightAware Approximate
07:28AM 36.9887 139.9256 49° Northeast  Level FlightAware Approximate
07:29AM 36.9988 140.1015 49° Northeast  Level FlightAware Approximate
07:30AM 37.0087 140.2774 49° Northeast  Level FlightAware Approximate
07:31AM 37.0182 140.4533 49° Northeast  Level FlightAware Approximate
07:32AM 37.0275 140.6292 49° Northeast  Level FlightAware Approximate
07:33AM 37.0366 140.8053 49° Northeast  Level FlightAware Approximate
07:34AM 37.0454 140.9813 48° Northeast  Level FlightAware Approximate
07:35AM 37.0540 141.1574 48° Northeast  Level FlightAware Approximate
07:36AM 37.1232 141.3110 48° Northeast  Level FlightAware Approximate
07:37AM 37.1923 141.4650 48° Northeast  Level FlightAware Approximate
07:38AM 37.2612 141.6192 48° Northeast  Level FlightAware Approximate
07:39AM 37.3299 141.7737 48° Northeast  Level FlightAware Approximate
07:40AM 37.3984 141.9285 48° Northeast  Level FlightAware Approximate
07:41AM 37.4667 142.0835 48° Northeast  Level FlightAware Approximate
07:42AM 37.5348 142.2389 48° Northeast  Level FlightAware Approximate
07:43AM 37.6027 142.3945 48° Northeast  Level FlightAware Approximate
07:44AM 37.6704 142.5504 48° Northeast  Level FlightAware Approximate
07:45AM 37.7378 142.7066 48° Northeast  Level FlightAware Approximate
07:46AM 37.8051 142.8631 48° Northeast  Level FlightAware Approximate
07:47AM 37.8722 143.0199 48° Northeast  Level FlightAware Approximate
07:48AM 37.9390 143.1769 48° Northeast  Level FlightAware Approximate
07:49AM 38.0267 143.3167 48° Northeast  Level FlightAware Approximate
07:50AM 38.1142 143.4568 48° Northeast  Level FlightAware Approximate
07:51AM 38.2016 143.5972 48° Northeast  Level FlightAware Approximate
07:52AM 38.2887 143.7380 49° Northeast  Level FlightAware Approximate
07:53AM 38.3758 143.8791 49° Northeast  Level FlightAware Approximate
07:54AM 38.4626 144.0206 49° Northeast  Level FlightAware Approximate
07:55AM 38.5493 144.1624 49° Northeast  Level FlightAware Approximate
07:56AM 38.6358 144.3045 49° Northeast  Level FlightAware Approximate
07:57AM 38.7221 144.4470 49° Northeast  Level FlightAware Approximate
07:58AM 38.8083 144.5898 49° Northeast  Level FlightAware Approximate
07:59AM 38.8942 144.7330 49° Northeast  Level FlightAware Approximate
08:00AM 38.9800 144.8765 49° Northeast  Level FlightAware Approximate
08:01AM 39.0657 145.0204 49° Northeast  Level FlightAware Approximate
08:02AM 39.1511 145.1646 49° Northeast  Level FlightAware Approximate
08:03AM 39.2364 145.3091 49° Northeast  Level FlightAware Approximate
08:04AM 39.3215 145.4541 49° Northeast  Level FlightAware Approximate
08:05AM 39.4064 145.5993 49° Northeast  Level FlightAware Approximate
08:06AM 39.4911 145.7450 49° Northeast  Level FlightAware Approximate
08:07AM 39.5757 145.8909 49° Northeast  Level FlightAware Approximate
08:08AM 39.6600 146.0373 49° Northeast  Level FlightAware Approximate
08:09AM 39.7442 146.1840 49° Northeast  Level FlightAware Approximate
08:10AM 39.8282 146.3310 50° Northeast  Level FlightAware Approximate
08:11AM 39.9120 146.4784 50° Northeast  Level FlightAware Approximate
08:12AM 39.9957 146.6262 50° Northeast  Level FlightAware Approximate
08:13AM 40.0791 146.7743 50° Northeast  Level FlightAware Approximate
08:14AM 40.1624 146.9228 50° Northeast  Level FlightAware Approximate
08:15AM 40.2454 147.0717 50° Northeast  Level FlightAware Approximate
08:16AM 40.3283 147.2209 50° Northeast  Level FlightAware Approximate
08:17AM 40.4110 147.3705 50° Northeast  Level FlightAware Approximate
08:18AM 40.4934 147.5205 50° Northeast  Level FlightAware Approximate
08:19AM 40.5757 147.6708 50° Northeast  Level FlightAware Approximate
08:20AM 40.6578 147.8215 50° Northeast  Level FlightAware Approximate
08:21AM 40.7397 147.9726 50° Northeast  Level FlightAware Approximate
08:22AM 40.8214 148.1240 50° Northeast  Level FlightAware Approximate
08:23AM 40.9029 148.2758 50° Northeast  Level FlightAware Approximate
08:24AM 40.9842 148.4280 50° Northeast  Level FlightAware Approximate
08:25AM 41.0653 148.5806 50° Northeast  Level FlightAware Approximate
08:26AM 41.1462 148.7335 50° Northeast  Level FlightAware Approximate
08:27AM 41.2269 148.8868 50° Northeast  Level FlightAware Approximate
08:28AM 41.3074 149.0405 50° Northeast  Level FlightAware Approximate
08:29AM 41.3877 149.1946 50° Northeast  Level FlightAware Approximate
08:30AM 41.4678 149.3490 50° Northeast  Level FlightAware Approximate
08:31AM 41.5476 149.5039 50° Northeast  Level FlightAware Approximate
08:32AM 41.6273 149.6591 51° Northeast  Level FlightAware Approximate
08:33AM 41.7068 149.8147 51° Northeast  Level FlightAware Approximate
08:34AM 41.7860 149.9707 51° Northeast  Level FlightAware Approximate
08:35AM 41.8651 150.1271 51° Northeast  Level FlightAware Approximate
08:36AM 41.9439 150.2838 51° Northeast  Level FlightAware Approximate
08:37AM 42.0225 150.4410 51° Northeast  Level FlightAware Approximate
08:38AM 42.1009 150.5985 51° Northeast  Level FlightAware Approximate
08:39AM 42.1790 150.7565 51° Northeast  Level FlightAware Approximate
08:40AM 42.2681 150.9037 51° Northeast  Level FlightAware Approximate
08:41AM 42.3571 151.0513 51° Northeast  Level FlightAware Approximate
08:42AM 42.4458 151.1994 51° Northeast  Level FlightAware Approximate
08:43AM 42.5343 151.3478 51° Northeast  Level FlightAware Approximate
08:44AM 42.6227 151.4967 51° Northeast  Level FlightAware Approximate
08:45AM 42.7108 151.6460 51° Northeast  Level FlightAware Approximate
08:46AM 42.7988 151.7958 51° Northeast  Level FlightAware Approximate
08:47AM 42.8865 151.9459 52° Northeast  Level FlightAware Approximate
08:48AM 42.9741 152.0965 52° Northeast  Level FlightAware Approximate
08:49AM 43.0615 152.2475 52° Northeast  Level FlightAware Approximate
08:50AM 43.1486 152.3990 52° Northeast  Level FlightAware Approximate
08:51AM 43.2356 152.5509 52° Northeast  Level FlightAware Approximate
08:52AM 43.3223 152.7032 52° Northeast  Level FlightAware Approximate
08:53AM 43.4089 152.8559 52° Northeast  Level FlightAware Approximate
08:54AM 43.4953 153.0091 52° Northeast  Level FlightAware Approximate
08:55AM 43.5814 153.1628 52° Northeast  Level FlightAware Approximate
08:56AM 43.6674 153.3168 52° Northeast  Level FlightAware Approximate
08:57AM 43.7531 153.4713 53° Northeast  Level FlightAware Approximate
08:58AM 43.8386 153.6263 53° Northeast  Level FlightAware Approximate
08:59AM 43.9240 153.7817 53° Northeast  Level FlightAware Approximate
09:00AM 44.0091 153.9375 53° Northeast  Level FlightAware Approximate
09:01AM 44.0940 154.0938 53° Northeast  Level FlightAware Approximate
09:02AM 44.1786 154.2505 53° Northeast  Level FlightAware Approximate
09:03AM 44.2631 154.4077 53° Northeast  Level FlightAware Approximate
09:04AM 44.3474 154.5654 53° Northeast  Level FlightAware Approximate
09:05AM 44.4341 154.7205 54° Northeast  Level FlightAware Approximate
09:06AM 44.5207 154.8762 54° Northeast  Level FlightAware Approximate
09:07AM 44.6070 155.0323 54° Northeast  Level FlightAware Approximate
09:08AM 44.6931 155.1889 54° Northeast  Level FlightAware Approximate
09:09AM 44.7791 155.3459 54° Northeast  Level FlightAware Approximate
09:10AM 44.8648 155.5034 54° Northeast  Level FlightAware Approximate
09:11AM 44.9502 155.6614 54° Northeast  Level FlightAware Approximate
09:12AM 45.0355 155.8198 55° Northeast  Level FlightAware Approximate
09:13AM 45.1205 155.9787 55° Northeast  Level FlightAware Approximate
09:14AM 45.2054 156.1381 55° Northeast  Level FlightAware Approximate
09:15AM 45.2900 156.2980 55° Northeast  Level FlightAware Approximate
09:16AM 45.3743 156.4583 55° Northeast  Level FlightAware Approximate
09:17AM 45.4585 156.6192 56° Northeast  Level FlightAware Approximate
09:18AM 45.5424 156.7805 56° Northeast  Level FlightAware Approximate
09:19AM 45.6261 156.9423 56° Northeast  Level FlightAware Approximate
09:20AM 45.7096 157.1045 56° Northeast  Level FlightAware Approximate
09:21AM 45.7928 157.2673 56° Northeast  Level FlightAware Approximate
09:22AM 45.8758 157.4305 57° Northeast  Level FlightAware Approximate
09:23AM 45.9586 157.5942 57° Northeast  Level FlightAware Approximate
09:24AM 46.0411 157.7585 57° Northeast  Level FlightAware Approximate
09:25AM 46.1234 157.9232 57° Northeast  Level FlightAware Approximate
09:26AM 46.2055 158.0883 58° Northeast  Level FlightAware Approximate
09:27AM 46.2873 158.2540 58° Northeast  Level FlightAware Approximate
09:28AM 46.3689 158.4202 58° Northeast  Level FlightAware Approximate
09:29AM 46.4502 158.5869 59° Northeast  Level FlightAware Approximate
09:30AM 46.5313 158.7541 59° Northeast  Level FlightAware Approximate
09:31AM 46.6121 158.9218 59° Northeast  Level FlightAware Approximate
09:32AM 46.6928 159.0900 60° Northeast  Level FlightAware Approximate
09:33AM 46.7731 159.2586 60° Northeast  Level FlightAware Approximate
09:34AM 46.8532 159.4278 61° Northeast  Level FlightAware Approximate
09:35AM 46.9331 159.5975 62° Northeast  Level FlightAware Approximate
09:36AM 47.0127 159.7677 63° Northeast  Level FlightAware Approximate
09:37AM 47.0921 159.9384 64° Northeast  Level FlightAware Approximate
09:38AM 47.1712 160.1096 65° Northeast  Level FlightAware Approximate
09:39AM 47.2500 160.2814 67° East  Level FlightAware Approximate
09:40AM 47.3286 160.4536 69° East  Level FlightAware Approximate
09:41AM 47.4069 160.6263 73° East  Level FlightAware Approximate
09:42AM 47.4850 160.7996 80° East  Level FlightAware Approximate
09:43AM 47.5628 160.9734 93° East  Level FlightAware Approximate
09:44AM 47.6404 161.1476 126° Southeast  Level FlightAware Approximate
09:45AM 47.7176 161.3224 177° South  Level FlightAware Approximate
09:46AM 47.7947 161.4978 204° Southwest  Level FlightAware Approximate
09:47AM 47.8714 161.6736 216° Southwest  Level FlightAware Approximate
09:48AM 47.9504 161.8475 221° Southwest  Level FlightAware Approximate
09:49AM 48.0291 162.0220 224° Southwest  Level FlightAware Approximate
09:50AM 48.1075 162.1970 226° Southwest  Level FlightAware Approximate
09:51AM 48.1857 162.3725 228° Southwest  Level FlightAware Approximate
09:52AM 48.2636 162.5486 229° Southwest  Level FlightAware Approximate
09:53AM 48.3412 162.7251 230° Southwest  Level FlightAware Approximate
09:54AM 48.4185 162.9023 231° Southwest  Level FlightAware Approximate
09:55AM 48.4956 163.0799 232° Southwest  Level FlightAware Approximate
09:56AM 48.5724 163.2581 232° Southwest  Level FlightAware Approximate
09:57AM 48.6490 163.4369 233° Southwest  Level FlightAware Approximate
09:58AM 48.7252 163.6162 233° Southwest  Level FlightAware Approximate
09:59AM 48.8012 163.7960 234° Southwest  Level FlightAware Approximate
10:00AM 48.8769 163.9764 234° Southwest  Level FlightAware Approximate
10:01AM 48.9523 164.1573 234° Southwest  Level FlightAware Approximate
10:02AM 49.0275 164.3388 235° Southwest  Level FlightAware Approximate
10:02AM 47.5500 161.3333 54° Northeast 484 557 37,000  Level Anchorage Center
10:11AM 48.2167 162.7500 56° Northeast 479 551 37,000  Level Anchorage Center
10:31AM 49.7000 166.2167 58° Northeast 485 558 37,000  Level Anchorage Center
10:37AM 50.1000 167.2167 59° Northeast 483 556 37,000  Level Anchorage Center
10:49AM 50.8667 169.3000 62° Northeast 490 564 37,000  Level Anchorage Center
10:50AM 50.9333 169.5000 58° Northeast 470 541 37,000  Level Anchorage Center
10:51AM 51.0000 169.6667 62° Northeast 480 552 37,000  Level Anchorage Center
10:52AM 51.0667 169.8667 62° Northeast 480 552 37,000  Level Anchorage Center
10:53AM 51.1333 170.0667 55° Northeast 480 552 37,000  Level Anchorage Center
10:54AM 51.2000 170.2167 64° Northeast 480 552 37,000  Level Anchorage Center
10:55AM 51.2500 170.3833 62° Northeast 470 541 37,000  Level Anchorage Center
10:56AM 51.3167 170.5833 64° Northeast 480 552 37,000  Level Anchorage Center
10:57AM 51.3833 170.8000 64° Northeast 490 564 37,000  Level Anchorage Center
10:58AM 51.4333 170.9667 64° Northeast 490 564 37,000  Level Anchorage Center
10:59AM 51.5000 171.1833 82° East 480 552 37,000  Level Anchorage Center
11:00AM 51.5167 171.3667 79° East 500 575 37,000  Level Anchorage Center
11:01AM 51.5500 171.6333 84° East 520 598 37,000  Level Anchorage Center
11:02AM 51.5667 171.8833 82° East 530 610 37,000  Level Anchorage Center
11:03AM 51.5833 172.0833 84° East 530 610 37,000  Level Anchorage Center
11:04AM 51.6000 172.3333 82° East 520 598 37,000  Level Anchorage Center
11:05AM 51.6167 172.5333 84° East 520 598 37,000  Level Anchorage Center
11:06AM 51.6333 172.7833 82° East 520 598 37,000  Level Anchorage Center
11:07AM 51.6500 172.9833 84° East 520 598 37,000  Level Anchorage Center
11:08AM 51.6667 173.2333 84° East 520 598 37,000  Level Anchorage Center
11:09AM 51.6833 173.5000 82° East 530 610 37,000  Level Anchorage Center
11:10AM 51.7000 173.7000 84° East 520 598 37,000  Level Anchorage Center
11:11AM 51.7167 173.9500 82° East 530 610 37,000  Level Anchorage Center
11:12AM 51.7333 174.1500 84° East 520 598 37,000  Level Anchorage Center
11:13AM 51.7500 174.4000 90° East 510 587 37,000  Level Anchorage Center
11:14AM 51.7500 174.6000 84° East 520 598 37,000  Level Anchorage Center
11:15AM 51.7667 174.8500 84° East 520 598 37,000  Level Anchorage Center
11:16AM 51.7833 175.1000 82° East 510 587 37,000  Level Anchorage Center
11:17AM 51.8000 175.3000 90° East 520 598 37,000  Level Anchorage Center
11:18AM 51.8000 175.5500 82° East 520 598 37,000  Level Anchorage Center
11:19AM 51.8167 175.7500 84° East 520 598 37,000  Level Anchorage Center
11:20AM 51.8333 176.0000 82° East 520 598 37,000  Level Anchorage Center
11:21AM 51.8500 176.2000 90° East 510 587 37,000  Level Anchorage Center
11:22AM 51.8500 176.4667 84° East 520 598 37,000  Level Anchorage Center
11:23AM 51.8667 176.7167 90° East 510 587 37,000  Level Anchorage Center
11:24AM 51.8667 176.9167 84° East 510 587 37,000  Level Anchorage Center
11:25AM 51.8833 177.1667 82° East 520 598 37,000  Level Anchorage Center
11:26AM 51.9000 177.3667 84° East 510 587 37,000  Level Anchorage Center
11:27AM 51.9167 177.6167 90° East 520 598 37,000  Level Anchorage Center
11:28AM 51.9167 177.8167 84° East 510 587 37,000  Level Anchorage Center
11:29AM 51.9333 178.0667 82° East 510 587 37,000  Level Anchorage Center
11:30AM 51.9500 178.2667 84° East 500 575 37,000  Level Anchorage Center
11:31AM 51.9667 178.5167 90° East 510 587 37,000  Level Anchorage Center
11:32AM 51.9667 178.7667 82° East 510 587 37,000  Level Anchorage Center
11:33AM 51.9833 178.9667 84° East 510 587 37,000  Level Anchorage Center
11:34AM 52.0000 179.2167 90° East 510 587 37,000  Level Anchorage Center
11:35AM 52.0000 179.4167 84° East 510 587 37,000  Level Anchorage Center
11:36AM 52.0167 179.6667 90° East 510 587 37,000  Level Anchorage Center
11:37AM 52.0167 179.8667 84° East 510 587 37,000  Level Anchorage Center
11:38AM 52.0333 -179.8667 83° East 520 598 37,000  Level Anchorage Center
11:39AM 52.0500 -179.6500 90° East 510 587 37,000  Level Anchorage Center
11:40AM 52.0500 -179.4000 86° East 500 575 37,000  Level Anchorage Center
11:57AM 52.1333 -175.4833 90° East 507 583 37,000  Level Anchorage Center
12:21PM 52.0000 -170.0000 85° East 523 602 37,000  Level Anchorage Center
12:24PM 52.0333 -169.3333 87° East 521 600 37,000  Level Anchorage Center
12:46PM 52.1000 -164.1833 90° East 520 598 37,000  Level Oakland Oceanic (ODAPS)
12:46PM 52.1000 -164.1167 91° East 517 595 37,000  Level Oakland Oceanic (ODAPS)
01:04PM 52.0000 -160.0000 86° East 522 601 37,000  Level Oakland Oceanic (ODAPS)
01:13PM 52.0667 -157.9500 88° East 522 601 37,000  Level Oakland Oceanic (ODAPS)
01:39PM 52.0500 -151.6333 92° East 517 595 39,000  Climbing Oakland Oceanic (ODAPS)
01:46PM 52.0000 -150.0000 95° East 510 587 39,000  Level Oakland Oceanic (ODAPS)
02:06PM 51.6500 -145.4667 90° East 515 593 39,000  Level Oakland Oceanic (ODAPS)
02:06PM 51.6500 -145.4167 99° East 514 592 39,000  Level Oakland Oceanic (ODAPS)
02:31PM 51.0000 -140.0000 100° East 518 596 39,000  Level Oakland Oceanic (ODAPS)
02:33PM 50.9333 -139.4167 101° East 512 589 39,000  Level Oakland Oceanic (ODAPS)
02:50PM 50.3833 -135.5667 106° East 511 588 39,000  Level Oakland Oceanic (ODAPS)
02:59PM 50.0667 -133.8833 98° East 410 472 39,000  Level Vancouver Center
02:59PM 50.0500 -133.7000 110° East 467 537 39,000  Level Oakland Oceanic (ODAPS)
03:01PM 50.0000 -133.4833 97° East 490 564 39,000  Level Vancouver Center
03:02PM 49.9833 -133.2667 90° East 500 575 39,000  Level Vancouver Center
03:03PM 49.9833 -133.0333 98° East 500 575 39,000  Level Vancouver Center
03:04PM 49.9667 -132.8500 107° East 500 575 39,000  Level Vancouver Center
03:05PM 49.9167 -132.6000 106° East 500 575 39,000  Level Vancouver Center
03:06PM 49.8833 -132.4167 103° East 500 575 39,000  Level Vancouver Center
03:07PM 49.8500 -132.2000 103° East 500 575 39,000  Level Vancouver Center
03:08PM 49.8167 -131.9833 106° East 500 575 39,000  Level Vancouver Center
03:09PM 49.7833 -131.8000 103° East 500 575 39,000  Level Vancouver Center
03:10PM 49.7500 -131.5833 103° East 500 575 39,000  Level Vancouver Center
03:11PM 49.7167 -131.3667 111° Southeast 510 587 39,000  Level Vancouver Center
03:12PM 49.6667 -131.1667 103° East 500 575 39,000  Level Vancouver Center
03:13PM 49.6333 -130.9500 103° East 500 575 39,000  Level Vancouver Center
03:14PM 49.6000 -130.7333 106° East 510 587 39,000  Level Vancouver Center
03:15PM 49.5667 -130.5500 108° East 500 575 39,000  Level Vancouver Center
03:16PM 49.5167 -130.3167 104° East 510 587 39,000  Level Vancouver Center
03:17PM 49.4833 -130.1167 104° East 500 575 39,000  Level Vancouver Center
03:18PM 49.4500 -129.9167 109° East 500 575 39,000  Level Vancouver Center
03:19PM 49.4000 -129.7000 106° East 500 575 39,000  Level Vancouver Center
03:20PM 49.3667 -129.5167 111° Southeast 500 575 39,000  Level Vancouver Center
03:21PM 49.3167 -129.3167 103° East 500 575 39,000  Level Vancouver Center
03:22PM 49.2833 -129.1000 103° East 500 575 39,000  Level Vancouver Center
03:23PM 49.2500 -128.8833 111° Southeast 500 575 39,000  Level Vancouver Center
03:24PM 49.2000 -128.6833 103° East 500 575 39,000  Level Vancouver Center
03:25PM 49.1667 -128.4667 113° Southeast 500 575 39,000  Level Vancouver Center
03:26PM 49.1167 -128.2833 104° East 500 575 39,000  Level Vancouver Center
03:27PM 49.0833 -128.0833 109° East 500 575 39,000  Level Vancouver Center
03:28PM 49.0333 -127.8667 115° Southeast 500 575 39,000  Level Vancouver Center
03:29PM 48.9833 -127.7000 103° East 490 564 39,000  Level Vancouver Center
03:30PM 48.9500 -127.4833 112° Southeast 500 575 39,000  Level Vancouver Center
03:31PM 48.9000 -127.3000 102° East 490 564 39,000  Level Vancouver Center
03:32PM 48.8667 -127.0667 114° Southeast 490 564 39,000  Level Vancouver Center
03:33PM 48.8167 -126.9000 103° East 490 564 39,000  Level Vancouver Center
03:34PM 48.7658 -126.5789 109° East 495 570 39,000  Level Seattle Center
03:35PM 48.7208 -126.3822 109° East 495 570 39,000  Level Seattle Center
03:36PM 48.6756 -126.1847 109° East 497 572 39,000  Level Seattle Center
03:37PM 48.6294 -125.9878 110° East 498 573 39,000  Level Seattle Center
03:38PM 48.5833 -125.7917 110° East 497 572 39,000 -480 Level Seattle Center
03:39PM 48.5367 -125.6006 110° East 493 567 38,100 -1,500 Descending Seattle Center
03:40PM 48.4894 -125.4078 109° East 491 565 36,000 -2,100 Descending Seattle Center
03:41PM 48.4367 -125.1833 110° East 478 550 33,900 -1,860 Descending Seattle Center
03:42PM 48.3922 -125.0011 110° East 468 539 32,200 -1,440 Descending Seattle Center
03:43PM 48.3492 -124.8247 111° Southeast 459 528 31,000 -1,440 Descending Seattle Center
03:44PM 48.3044 -124.6519 103° East 438 504 29,300 -1,620 Descending Seattle Center
03:45PM 48.2808 -124.4931 102° East 427 491 27,800 -1,320 Descending Seattle Center
03:46PM 48.2519 -124.2944 103° East 410 472 26,700 -1,140 Descending Seattle Center
03:47PM 48.2292 -124.1417 103° East 382 440 25,500 -1,380 Descending Seattle Center
03:48PM 48.2064 -123.9919 102° East 373 429 23,900 -1,440 Descending Seattle Center
03:49PM 48.1850 -123.8442 103° East 368 423 22,600 -1,680 Descending Seattle Center
03:50PM 48.1631 -123.6994 102° East 361 415 20,500 -1,920 Descending Seattle Center
03:51PM 48.1417 -123.5506 109° East 364 419 18,800 -1,560 Descending Seattle Center
03:52PM 48.1086 -123.4097 110° East 362 417 17,400 -1,320 Descending Seattle Center
03:53PM 48.0744 -123.2731 111° Southeast 353 406 16,100 -1,140 Descending Seattle Center
03:54PM 48.0372 -123.1272 111° Southeast 328 377 15,100 -1,140 Descending Seattle Center
03:56PM 48.0075 -123.0092 111° Southeast 311 358 13,800 -1,200 Descending Seattle Center
03:57PM 47.9778 -122.8936 110° East 303 349 12,700 -1,080 Descending Seattle Center
03:58PM 47.9503 -122.7833 131° Southeast 290 334 11,600 -1,140 Descending Seattle Center
03:59PM 47.9011 -122.6992 103° East 277 319 10,500 -840 Descending Seattle Center
04:00PM 47.8842 -122.5914 96° East 273 314 9,900 -720 Descending Seattle Center
04:01PM 47.8769 -122.4919 99° East 244 281 9,100 -1,080 Descending Seattle Center
04:02PM 47.8672 -122.3978 140° Southeast 233 268 7,700 -1,320 Descending Seattle Center
04:03PM 47.8125 -122.3286 166° South 226 260 6,500 -1,080 Descending Seattle Center
04:04PM 47.7519 -122.3061 181° South 210 242 5,400 -960 Descending Seattle Center
04:05PM 47.6983 -122.3072 180° South 209 241 4,600 -780 Descending Seattle Center
04:06PM 47.6450 -122.3072 180° South 194 223 4,000 -840 Descending Seattle Center
04:07PM 47.5867 -122.3075 180° South 195 224 2,900 -960 Descending Seattle Center
04:09PM 47.4992 -122.3083 180° South 147 169 1,200 -840 Descending Seattle Center
04:10PM 47.4642 -122.3086 180° South 131 151 500 -720 Descending Seattle Center